Cherry Creek, Idaho
Current Conditions -  °F | °C
As of 1:51 AM on Sunday 23 Nov 2014 (Local Time) from KLGU Reporting Station
Overcast Overcast  
Wind Chill: 34°   Ceiling: 4900
Heat Index: 34°   Visibility: 10mi
Dew Point: 31°   Wind: 0mph
Humidity: 89%   Direction: NA
Pressure: 29.94"   Gusts: NA
Location:  42.2285°N, 112.313°W
Report Text: KLGU 230851Z AUTO 00000KT 10SM FEW041 BKN049 OVC055 01/M01 A2994 RMK AO2 SLP139 60001 T00111006 51010
Loading
Personal Weather Stations






























Interactive Weather Map New forecast layout! Learn more

10-Day Weather Forecast

Advertisements
Track Severe Weather on mobile